Upsala, Canada
Current Conditions -  °F | °C
As of 7:00 PM on Monday 22 Dec 2014 (Local Time) from CYQT Reporting Station
Haze Haze  
Wind Chill: 28°   Ceiling: 1200
Heat Index: 34°   Visibility: 3mi
Dew Point: 34°   Wind: 7mph
Humidity: 100%   Direction: 80°E
Pressure: 29.84"   Gusts: NA
Location:  49.04°N, 90.47°W
Report Text: CYQT 230100Z 08006KT 3SM BR OVC012 01/01 A2984 RMK ST8 VIS VRB 2-4 VIS HIER NE QUAD SLP113
Loading
Personal Weather Stations






























Interactive Weather Map New forecast layout! Learn more

10-Day Weather Forecast

Advertisements
Track Severe Weather on mobile